Terminal Aerodrome Forecast
Issued by NWS

Home | Current Version | Previous Version | Text Only | Print | Product List | Glossary On
Versions: 1 2 3 4 5 6 7 8 9 10 11 12 13 14
814
FTUS45 KTFX 011232 AAA
TAFCTB
TAF AMD
KCTB 011232Z 0113/0212 34013KT P6SM SCT080 BKN150
      TEMPO 0113/0115 4SM BR SCT003
     FM011900 24014G28KT P6SM VCSH SCT070 BKN120
     FM020100 25011KT P6SM SCT150
     FM020600 26012KT P6SM SKC=

USA.gov is the U.S. government's official web portal to all federal, state and local government web resources and services.